createdAt,value
2023-04-17T00:00:32.968Z,15.30
2023-04-17T00:03:20.681Z,15.10
2023-04-17T00:06:08.927Z,15.10
2023-04-17T00:08:56.712Z,15.10
2023-04-17T00:11:44.577Z,15.10
2023-04-17T00:14:32.568Z,15.30
2023-04-17T00:17:20.322Z,15.20
2023-04-17T00:20:12.525Z,15.30
2023-04-17T00:23:00.444Z,15.20
2023-04-17T00:25:48.403Z,15.20
2023-04-17T00:28:36.008Z,15.20
2023-04-17T00:31:23.970Z,15.20
2023-04-17T00:34:11.383Z,15.10
2023-04-17T00:36:59.448Z,15.10
2023-04-17T00:39:47.119Z,15.10
2023-04-17T00:42:34.812Z,15.20
2023-04-17T00:45:22.817Z,15.20
2023-04-17T00:48:11.294Z,15.20
2023-04-17T00:51:03.676Z,15.30
2023-04-17T00:53:52.025Z,15.20
2023-04-17T00:56:41.280Z,15.30
2023-04-17T00:59:32.693Z,15.40
2023-04-17T01:02:20.851Z,15.40
2023-04-17T01:05:10.019Z,15.30
2023-04-17T01:08:01.512Z,15.30
2023-04-17T01:10:49.201Z,15.30
2023-04-17T01:13:56.997Z,15.20
2023-04-17T01:16:44.835Z,15.30
2023-04-17T01:19:32.836Z,15.20
2023-04-17T01:22:21.436Z,15.30
2023-04-17T01:25:09.329Z,15.20
2023-04-17T01:27:57.351Z,15.10
2023-04-17T01:30:44.943Z,15.20
2023-04-17T01:33:32.565Z,15.10
2023-04-17T01:36:20.444Z,15.10
2023-04-17T01:39:08.090Z,15.10
2023-04-17T01:41:58.661Z,15.20
2023-04-17T01:44:46.670Z,15.20
2023-04-17T01:47:34.394Z,15.10
2023-04-17T01:50:22.306Z,15.20
2023-04-17T01:53:10.076Z,15.10
2023-04-17T01:55:58.091Z,15.10
2023-04-17T01:58:45.684Z,15.10
2023-04-17T02:01:33.412Z,15.20
2023-04-17T02:04:21.109Z,15.20
2023-04-17T02:07:09.039Z,15.20
2023-04-17T02:09:56.509Z,15.20
2023-04-17T02:12:44.080Z,15.10
2023-04-17T02:15:31.936Z,15.10
2023-04-17T02:18:19.777Z,15.20
2023-04-17T02:21:07.356Z,15.20
2023-04-17T02:23:54.907Z,15.10
2023-04-17T02:26:42.702Z,15.20
2023-04-17T02:29:30.486Z,15.20
2023-04-17T02:32:18.201Z,15.20
2023-04-17T02:35:06.499Z,15.10
2023-04-17T02:37:54.488Z,15.20
2023-04-17T02:40:41.962Z,15.10
2023-04-17T02:43:29.646Z,15.10
2023-04-17T02:46:17.226Z,15.10
2023-04-17T02:49:04.760Z,15.10
2023-04-17T02:51:52.208Z,15.10
2023-04-17T02:54:39.709Z,15.10
2023-04-17T02:57:27.431Z,15.10
2023-04-17T03:00:15.239Z,15.10
2023-04-17T03:03:03.438Z,15.10
2023-04-17T03:05:51.945Z,15.10
2023-04-17T03:08:39.776Z,15.10
2023-04-17T03:11:27.461Z,15.20
2023-04-17T03:14:15.925Z,15.10
2023-04-17T03:17:03.357Z,15.10
2023-04-17T03:19:50.956Z,15.10
2023-04-17T03:22:38.646Z,15.10
2023-04-17T03:25:26.596Z,15.10
2023-04-17T03:28:14.332Z,15.10
2023-04-17T03:31:02.002Z,14.90
2023-04-17T03:33:50.341Z,15.00
2023-04-17T03:36:38.004Z,15.00
2023-04-17T03:39:25.626Z,15.00
2023-04-17T03:42:14.843Z,15.10
2023-04-17T03:45:04.619Z,15.10
2023-04-17T03:47:52.361Z,15.10
2023-04-17T03:50:43.124Z,15.20
2023-04-17T03:53:31.140Z,15.20
2023-04-17T03:56:18.805Z,15.00
2023-04-17T03:59:06.385Z,15.10
2023-04-17T04:01:54.510Z,15.10
2023-04-17T04:04:42.611Z,15.10
2023-04-17T04:07:30.431Z,15.10
2023-04-17T04:10:18.159Z,15.00
2023-04-17T04:13:06.035Z,15.10
2023-04-17T04:15:54.195Z,15.10
2023-04-17T04:18:43.449Z,15.20
2023-04-17T04:21:30.904Z,15.20
2023-04-17T04:24:20.724Z,15.00
2023-04-17T04:27:09.684Z,15.10
2023-04-17T04:29:58.937Z,15.10
2023-04-17T04:32:47.085Z,15.00
2023-04-17T04:35:36.295Z,15.00
2023-04-17T04:38:30.643Z,15.10
2023-04-17T04:41:20.110Z,15.20
2023-04-17T04:44:07.594Z,15.00
2023-04-17T04:46:55.774Z,15.20
2023-04-17T04:49:43.615Z,15.10
2023-04-17T04:52:31.099Z,15.20
2023-04-17T04:55:19.921Z,15.30
2023-04-17T04:58:07.330Z,15.40
2023-04-17T05:00:55.962Z,15.40
2023-04-17T05:03:47.674Z,15.30
2023-04-17T05:06:35.765Z,15.50
2023-04-17T05:09:23.824Z,15.50
2023-04-17T05:12:11.761Z,15.60
2023-04-17T05:14:59.762Z,15.50
2023-04-17T05:17:48.191Z,15.50
2023-04-17T05:20:38.003Z,15.60
2023-04-17T05:23:25.843Z,15.60
2023-04-17T05:26:13.689Z,15.70
2023-04-17T05:29:01.380Z,15.50
2023-04-17T05:31:48.984Z,15.80
2023-04-17T05:34:36.804Z,15.90
2023-04-17T05:37:24.612Z,15.60
2023-04-17T05:40:13.392Z,15.90
2023-04-17T05:43:12.433Z,16.10
2023-04-17T05:46:01.009Z,16.10
2023-04-17T05:48:51.776Z,16.10
2023-04-17T05:51:39.522Z,16.00
2023-04-17T05:54:30.401Z,16.20
2023-04-17T05:57:18.004Z,16.20
2023-04-17T06:00:11.176Z,16.20
2023-04-17T06:03:00.007Z,16.20
2023-04-17T06:05:48.521Z,16.30
2023-04-17T06:08:36.421Z,16.50
2023-04-17T06:11:24.542Z,16.60
2023-04-17T06:14:12.832Z,16.60
2023-04-17T06:17:00.542Z,16.50
2023-04-17T06:19:48.100Z,16.70
2023-04-17T06:22:36.835Z,16.80
2023-04-17T06:25:24.515Z,16.60
2023-04-17T06:28:12.405Z,16.70
2023-04-17T06:31:02.981Z,16.70
2023-04-17T06:33:51.613Z,16.60
2023-04-17T06:36:39.605Z,16.70
2023-04-17T06:39:27.616Z,16.70
2023-04-17T06:42:16.555Z,16.70
2023-04-17T06:45:05.542Z,16.90
2023-04-17T06:47:53.363Z,16.80
2023-04-17T06:50:41.274Z,16.80
2023-04-17T06:53:28.977Z,16.90
2023-04-17T06:56:17.212Z,17.00
2023-04-17T06:59:05.023Z,17.30
2023-04-17T07:01:52.936Z,17.20
2023-04-17T07:04:40.611Z,17.30
2023-04-17T07:07:30.071Z,17.40
2023-04-17T07:10:19.913Z,17.30
2023-04-17T07:13:08.272Z,17.20
2023-04-17T07:16:01.632Z,17.00
2023-04-17T07:18:52.078Z,17.20
2023-04-17T07:21:39.781Z,17.20
2023-04-17T07:24:27.726Z,17.50
2023-04-17T07:27:16.079Z,17.50
2023-04-17T07:30:05.032Z,17.60
2023-04-17T07:32:53.076Z,17.80
2023-04-17T07:35:41.346Z,18.00
2023-04-17T07:38:30.968Z,17.90
2023-04-17T07:41:18.726Z,18.00
2023-04-17T07:44:06.637Z,18.20
2023-04-17T07:46:54.141Z,18.20
2023-04-17T07:49:42.194Z,18.30
2023-04-17T07:52:31.292Z,18.20
2023-04-17T07:55:18.986Z,18.40
2023-04-17T07:58:06.582Z,18.70
2023-04-17T08:00:54.341Z,18.80
2023-04-17T08:03:45.227Z,18.20
2023-04-17T08:06:36.735Z,18.60
2023-04-17T08:09:24.411Z,18.80
2023-04-17T08:12:12.195Z,18.70
2023-04-17T08:14:59.925Z,18.70
2023-04-17T08:17:48.413Z,19.20
2023-04-17T08:20:36.882Z,19.30
2023-04-17T08:23:24.410Z,18.90
2023-04-17T08:26:12.178Z,19.30
2023-04-17T08:29:04.596Z,19.20
2023-04-17T08:32:00.252Z,19.50
2023-04-17T08:34:59.135Z,20.00
2023-04-17T08:37:47.018Z,19.80
2023-04-17T08:40:34.672Z,20.10
2023-04-17T08:43:23.949Z,20.20
2023-04-17T08:46:12.875Z,20.10
2023-04-17T08:49:03.510Z,20.10
2023-04-17T08:51:51.613Z,20.30
2023-04-17T08:54:39.719Z,20.30
2023-04-17T08:57:28.023Z,20.30
2023-04-17T09:00:25.614Z,20.50
2023-04-17T09:03:14.914Z,20.70
2023-04-17T09:06:05.919Z,20.50
2023-04-17T09:09:02.001Z,20.60
2023-04-17T09:12:10.926Z,20.60
2023-04-17T09:14:58.833Z,20.50
2023-04-17T09:17:47.334Z,20.20
2023-04-17T09:20:50.863Z,20.30
2023-04-17T09:23:59.421Z,20.30
2023-04-17T09:26:47.130Z,20.30
2023-04-17T09:29:35.185Z,20.60
2023-04-17T09:32:22.746Z,20.60
2023-04-17T09:35:10.229Z,20.60
2023-04-17T09:37:59.923Z,20.50
2023-04-17T09:40:47.450Z,20.90
2023-04-17T09:43:44.253Z,20.90
2023-04-17T09:46:38.231Z,20.90
2023-04-17T09:49:42.485Z,20.90
2023-04-17T09:52:31.324Z,21.10
2023-04-17T09:55:25.207Z,21.10
2023-04-17T09:58:12.903Z,20.60
2023-04-17T10:01:00.557Z,20.70
2023-04-17T10:03:49.826Z,20.50
2023-04-17T10:06:37.679Z,20.80
2023-04-17T10:09:25.153Z,21.20
2023-04-17T10:12:18.015Z,21.20
2023-04-17T10:15:09.170Z,21.50
2023-04-17T10:18:23.987Z,21.30
2023-04-17T10:21:25.261Z,21.30
2023-04-17T10:24:26.497Z,21.60
2023-04-17T10:27:40.437Z,21.90
2023-04-17T10:30:55.624Z,21.80
2023-04-17T10:33:54.580Z,21.70
2023-04-17T10:36:42.313Z,22.10
2023-04-17T10:39:54.597Z,21.70
2023-04-17T10:42:42.183Z,21.80
2023-04-17T10:45:56.816Z,21.90
2023-04-17T10:48:52.927Z,22.00
2023-04-17T10:51:42.973Z,22.00
2023-04-17T10:54:33.208Z,21.70
2023-04-17T10:58:04.996Z,21.40
2023-04-17T11:00:53.268Z,21.90
2023-04-17T11:03:42.484Z,22.40
2023-04-17T11:06:39.623Z,23.00
2023-04-17T11:09:29.848Z,23.00
2023-04-17T11:12:19.208Z,23.50
2023-04-17T11:15:07.779Z,23.60
2023-04-17T11:17:57.096Z,23.90
2023-04-17T11:20:45.377Z,24.10
2023-04-17T11:23:34.125Z,24.30
2023-04-17T11:26:23.606Z,24.30
2023-04-17T11:29:17.059Z,24.40
2023-04-17T11:32:05.163Z,24.30
2023-04-17T11:34:54.877Z,24.60
2023-04-17T11:38:24.889Z,24.60
2023-04-17T11:41:12.814Z,24.90
2023-04-17T11:44:01.952Z,25.10
2023-04-17T11:46:55.491Z,25.20
2023-04-17T11:49:43.102Z,25.60
2023-04-17T11:52:30.839Z,25.60
2023-04-17T11:55:18.455Z,25.50
2023-04-17T11:58:11.821Z,24.60
2023-04-17T12:01:06.969Z,24.60
2023-04-17T12:03:57.064Z,25.20
2023-04-17T12:06:44.712Z,25.30
2023-04-17T12:09:36.572Z,25.30
2023-04-17T12:12:24.366Z,24.70
2023-04-17T12:15:12.133Z,23.50
2023-04-17T12:17:59.749Z,24.00
2023-04-17T12:20:47.613Z,23.80
2023-04-17T12:23:35.316Z,23.90
2023-04-17T12:26:24.990Z,24.50
2023-04-17T12:29:12.464Z,25.00
2023-04-17T12:32:00.025Z,24.90
2023-04-17T12:34:47.602Z,24.70
2023-04-17T12:37:35.235Z,24.90
2023-04-17T12:40:25.107Z,25.30
2023-04-17T12:43:15.923Z,24.70
2023-04-17T12:46:03.497Z,24.70
2023-04-17T12:48:55.772Z,24.70
2023-04-17T12:51:43.219Z,24.00
2023-04-17T12:54:30.771Z,24.20
2023-04-17T12:57:18.298Z,24.40
2023-04-17T13:00:07.409Z,23.50
2023-04-17T13:02:55.030Z,23.10
2023-04-17T13:05:42.872Z,22.80
2023-04-17T13:08:31.090Z,23.00
2023-04-17T13:11:18.583Z,22.90
2023-04-17T13:14:06.163Z,23.00
2023-04-17T13:16:54.510Z,23.20
2023-04-17T13:19:42.158Z,23.00
2023-04-17T13:22:29.628Z,23.00
2023-04-17T13:25:17.380Z,23.30
2023-04-17T13:28:05.081Z,23.20
2023-04-17T13:30:53.324Z,23.10
2023-04-17T13:33:41.181Z,23.30
2023-04-17T13:36:29.521Z,23.90
2023-04-17T13:39:17.161Z,23.90
2023-04-17T13:42:04.813Z,23.70
2023-04-17T13:44:52.310Z,23.50
2023-04-17T13:47:40.149Z,23.50
2023-04-17T13:50:27.677Z,23.70
2023-04-17T13:53:15.207Z,23.40
2023-04-17T13:56:03.314Z,23.30
2023-04-17T13:58:52.622Z,23.50
2023-04-17T14:01:40.303Z,23.20
2023-04-17T14:04:28.450Z,23.30
2023-04-17T14:07:16.931Z,23.10
2023-04-17T14:10:04.911Z,23.40
2023-04-17T14:12:52.715Z,23.10
2023-04-17T14:15:41.022Z,23.00
2023-04-17T14:18:28.652Z,23.20
2023-04-17T14:21:17.738Z,23.40
2023-04-17T14:24:06.121Z,23.40
2023-04-17T14:26:53.675Z,23.40
2023-04-17T14:29:41.249Z,23.50
2023-04-17T14:32:28.712Z,23.50
2023-04-17T14:35:16.217Z,23.70
2023-04-17T14:38:05.109Z,23.40
2023-04-17T14:40:53.089Z,23.40
2023-04-17T14:43:40.584Z,23.40
2023-04-17T14:46:28.156Z,23.40
2023-04-17T14:49:15.835Z,23.40
2023-04-17T14:52:03.482Z,23.40
2023-04-17T14:54:51.208Z,23.30
2023-04-17T14:57:39.385Z,23.10
2023-04-17T15:00:26.804Z,23.20
2023-04-17T15:03:14.594Z,22.90
2023-04-17T15:06:03.424Z,22.90
2023-04-17T15:08:50.998Z,22.80
2023-04-17T15:11:38.402Z,22.70
2023-04-17T15:14:26.011Z,22.70
2023-04-17T15:17:13.480Z,22.50
2023-04-17T15:20:01.358Z,22.60
2023-04-17T15:22:52.587Z,22.40
2023-04-17T15:25:40.237Z,22.50
2023-04-17T15:28:28.267Z,22.50
2023-04-17T15:31:15.829Z,22.40
2023-04-17T15:34:03.607Z,22.10
2023-04-17T15:36:51.090Z,21.60
2023-04-17T15:39:40.010Z,22.10
2023-04-17T15:42:27.899Z,21.90
2023-04-17T15:45:15.379Z,22.00
2023-04-17T15:48:02.901Z,21.70
2023-04-17T15:50:50.430Z,21.50
2023-04-17T15:53:38.076Z,21.70
2023-04-17T15:56:25.776Z,21.60
2023-04-17T15:59:13.549Z,21.30
2023-04-17T16:02:01.388Z,21.00
2023-04-17T16:04:48.995Z,21.00
2023-04-17T16:07:36.529Z,20.60
2023-04-17T16:10:24.262Z,20.60
2023-04-17T16:13:11.718Z,20.50
2023-04-17T16:15:59.196Z,20.40
2023-04-17T16:18:47.677Z,20.40
2023-04-17T16:21:36.604Z,20.40
2023-04-17T16:24:26.100Z,20.40
2023-04-17T16:27:13.529Z,20.30
2023-04-17T16:30:00.977Z,20.30
2023-04-17T16:32:50.302Z,20.40
2023-04-17T16:35:37.840Z,20.30
2023-04-17T16:38:25.566Z,20.20
2023-04-17T16:41:13.051Z,20.10
2023-04-17T16:44:00.581Z,20.40
2023-04-17T16:49:38.476Z,20.50
2023-04-17T16:52:25.960Z,20.30
2023-04-17T16:55:13.914Z,20.30
2023-04-17T16:58:04.367Z,20.10
2023-04-17T17:00:52.133Z,20.10
2023-04-17T17:03:39.686Z,20.10
2023-04-17T17:06:27.348Z,20.00
2023-04-17T17:09:14.965Z,19.90
2023-04-17T17:12:03.403Z,20.10
2023-04-17T17:14:50.966Z,19.90
2023-04-17T17:17:38.481Z,19.70
2023-04-17T17:20:25.966Z,19.80
2023-04-17T17:23:13.429Z,19.70
2023-04-17T17:26:01.238Z,19.70
2023-04-17T17:28:51.316Z,19.70
2023-04-17T17:31:39.108Z,19.60
2023-04-17T17:34:27.309Z,19.30
2023-04-17T17:37:15.011Z,19.30
2023-04-17T17:40:04.280Z,19.40
2023-04-17T17:42:51.865Z,19.40
2023-04-17T17:45:39.952Z,19.30
2023-04-17T17:48:27.615Z,19.30
2023-04-17T17:51:15.103Z,19.30
2023-04-17T17:54:02.667Z,19.20
2023-04-17T17:56:50.269Z,19.30
2023-04-17T17:59:37.829Z,19.20
2023-04-17T18:02:25.445Z,19.10
2023-04-17T18:05:13.023Z,19.00
2023-04-17T18:08:00.661Z,19.00
2023-04-17T18:10:48.134Z,19.00
2023-04-17T18:13:35.648Z,18.90
2023-04-17T18:16:23.153Z,19.00
2023-04-17T18:19:10.741Z,18.80
2023-04-17T18:21:58.263Z,18.80
2023-04-17T18:24:45.736Z,18.80
2023-04-17T18:27:36.388Z,18.80
2023-04-17T18:30:23.981Z,18.80
2023-04-17T18:33:11.455Z,18.70
2023-04-17T18:35:58.886Z,18.90
2023-04-17T18:38:46.378Z,18.80
2023-04-17T18:41:34.709Z,18.80
2023-04-17T18:44:22.515Z,18.70
2023-04-17T18:47:10.337Z,18.70
2023-04-17T18:49:57.808Z,18.90
2023-04-17T18:52:49.589Z,18.80
2023-04-17T18:55:38.748Z,18.50
2023-04-17T18:58:26.172Z,18.60
2023-04-17T19:01:13.763Z,18.70
2023-04-17T19:04:01.330Z,18.60
2023-04-17T19:06:48.841Z,18.60
2023-04-17T19:09:36.449Z,18.60
2023-04-17T19:12:24.018Z,18.70
2023-04-17T19:15:12.367Z,18.40
2023-04-17T19:17:59.845Z,18.40
2023-04-17T19:20:48.189Z,18.30
2023-04-17T19:23:37.702Z,18.40
2023-04-17T19:26:25.317Z,18.40
2023-04-17T19:29:13.553Z,18.70
2023-04-17T19:32:01.673Z,17.60
2023-04-17T19:34:49.360Z,17.80
2023-04-17T19:37:37.123Z,17.00
2023-04-17T19:40:25.884Z,17.90
2023-04-17T19:43:13.641Z,17.70
2023-04-17T19:46:01.176Z,18.20
2023-04-17T19:48:49.787Z,18.10
2023-04-17T19:51:38.808Z,18.20
2023-04-17T19:54:27.276Z,18.10
2023-04-17T19:57:14.861Z,18.10
2023-04-17T20:00:02.610Z,18.00
2023-04-17T20:02:50.221Z,18.00
2023-04-17T20:05:37.841Z,17.90
2023-04-17T20:08:26.115Z,17.90
2023-04-17T20:11:17.336Z,17.80
2023-04-17T20:14:06.545Z,17.70
2023-04-17T20:16:54.082Z,17.70
2023-04-17T20:19:41.628Z,17.70
2023-04-17T20:22:29.062Z,17.70
2023-04-17T20:25:18.031Z,17.60
2023-04-17T20:28:05.777Z,17.60
2023-04-17T20:30:53.253Z,17.70
2023-04-17T20:33:41.289Z,17.70
2023-04-17T20:36:28.781Z,17.60
2023-04-17T20:39:16.441Z,17.60
2023-04-17T20:42:04.057Z,17.70
2023-04-17T20:44:51.493Z,17.60
2023-04-17T20:47:52.618Z,17.60
2023-04-17T20:50:43.369Z,17.50
2023-04-17T20:53:31.000Z,17.60
2023-04-17T20:56:21.445Z,17.20
2023-04-17T20:59:09.063Z,17.40
2023-04-17T21:01:56.583Z,17.50
2023-04-17T21:04:44.678Z,17.40
2023-04-17T21:07:32.227Z,17.00
2023-04-17T21:10:21.018Z,17.30
2023-04-17T21:13:08.574Z,17.50
2023-04-17T21:15:56.326Z,17.60
2023-04-17T21:18:45.382Z,17.60
2023-04-17T21:21:32.881Z,17.70
2023-04-17T21:24:21.622Z,17.80
2023-04-17T21:27:10.267Z,17.90
2023-04-17T21:29:57.808Z,17.80
2023-04-17T21:32:47.908Z,18.00
2023-04-17T21:35:36.765Z,17.60
2023-04-17T21:38:24.351Z,17.50
2023-04-17T21:41:11.805Z,17.80
2023-04-17T21:44:01.587Z,17.90
2023-04-17T21:46:49.003Z,17.80
2023-04-17T21:49:36.569Z,17.80
2023-04-17T21:52:24.002Z,17.80
2023-04-17T21:55:11.498Z,17.50
2023-04-17T21:57:59.438Z,17.60
2023-04-17T22:00:47.068Z,17.60
2023-04-17T22:03:34.751Z,17.70
2023-04-17T22:06:22.253Z,17.60
2023-04-17T22:09:09.915Z,17.50
2023-04-17T22:11:58.862Z,17.40
2023-04-17T22:14:47.341Z,17.70
2023-04-17T22:17:34.949Z,17.60
2023-04-17T22:20:22.512Z,17.60
2023-04-17T22:23:09.932Z,17.50
2023-04-17T22:25:57.385Z,17.80
2023-04-17T22:28:44.850Z,17.60
2023-04-17T22:31:32.460Z,17.60
2023-04-17T22:34:20.193Z,17.60
2023-04-17T22:37:07.646Z,17.60
2023-04-17T22:39:55.116Z,17.50
2023-04-17T22:42:43.344Z,17.50
2023-04-17T22:45:30.879Z,17.40
2023-04-17T22:48:18.509Z,17.40
2023-04-17T22:51:06.219Z,17.40
2023-04-17T22:53:53.674Z,17.40
2023-04-17T22:56:41.271Z,17.40
2023-04-17T22:59:29.735Z,17.40
2023-04-17T23:02:17.391Z,17.30
2023-04-17T23:05:06.620Z,17.20
2023-04-17T23:07:54.156Z,17.10
2023-04-17T23:10:41.599Z,17.20
2023-04-17T23:13:31.675Z,17.20
2023-04-17T23:16:19.287Z,17.10
2023-04-17T23:19:06.797Z,17.10
2023-04-17T23:21:54.336Z,17.20
2023-04-17T23:24:41.807Z,17.20
2023-04-17T23:27:29.308Z,17.20
2023-04-17T23:30:16.821Z,17.20
2023-04-17T23:33:04.647Z,17.30
2023-04-17T23:35:52.183Z,17.30
2023-04-17T23:38:39.893Z,17.40
2023-04-17T23:41:28.046Z,17.20
2023-04-17T23:44:15.711Z,17.30
2023-04-17T23:47:04.672Z,17.40
2023-04-17T23:49:52.245Z,17.30
2023-04-17T23:52:39.749Z,16.70
2023-04-17T23:55:27.826Z,17.00
2023-04-17T23:58:15.234Z,17.30
